Time;durP1;ratioP1;P1;durP2;ratioP2;P2;SDS_P1;SDS_P2;PMS_P1;PMS_P2;Temp;Humidity;BMP_temperature;BMP_pressure;BME280_temperature;BME280_humidity;BME280_pressure;Samples;Min_cycle;Max_cycle;Signal;HPM_P1;HPM_P2
2023/09/19 00:00:21;;;;;;;19.20;15.70;;;;;;;-128.00;-1.00;-1.00;105576;1250;1057542;-81
2023/09/19 00:03:08;;;;;;;21.60;16.00;;;;;;;-128.00;-1.00;-1.00;105615;1250;1060690;-81
2023/09/19 00:05:36;;;;;;;20.40;16.20;;;;;;;-128.00;-1.00;-1.00;105596;1250;1004967;-81
2023/09/19 00:08:04;;;;;;;21.90;15.70;;;;;;;-128.00;-1.00;-1.00;105640;1250;1004022;-81
2023/09/19 00:10:31;;;;;;;24.80;17.90;;;;;;;-128.00;-1.00;-1.00;105607;1251;1004435;-81
2023/09/19 00:12:59;;;;;;;26.20;16.00;;;;;;;-128.00;-1.00;-1.00;105633;1250;1004123;-80
2023/09/19 00:15:28;;;;;;;21.50;15.70;;;;;;;-128.00;-1.00;-1.00;105592;1250;1004652;-81
2023/09/19 00:17:55;;;;;;;19.70;15.90;;;;;;;-128.00;-1.00;-1.00;105571;1251;1046711;-81
2023/09/19 00:20:25;;;;;;;21.20;15.80;;;;;;;-128.00;-1.00;-1.00;105659;1250;1004341;-81
2023/09/19 00:22:54;;;;;;;20.20;14.60;;;;;;;-128.00;-1.00;-1.00;105638;1251;1062039;-80
2023/09/19 00:25:20;;;;;;;19.40;15.10;;;;;;;-128.00;-1.00;-1.00;105652;1250;1058334;-80
2023/09/19 00:27:51;;;;;;;22.90;15.50;;;;;;;-128.00;-1.00;-1.00;105611;1250;1004137;-81
2023/09/19 00:30:20;;;;;;;20.40;15.50;;;;;;;-128.00;-1.00;-1.00;105624;1250;1048051;-81
2023/09/19 00:32:47;;;;;;;21.50;17.10;;;;;;;-128.00;-1.00;-1.00;105612;1250;1046156;-81
2023/09/19 00:35:15;;;;;;;24.30;16.40;;;;;;;-128.00;-1.00;-1.00;105593;1251;1004713;-81
2023/09/19 00:37:42;;;;;;;25.10;16.10;;;;;;;-128.00;-1.00;-1.00;105629;1251;1004176;-81
2023/09/19 00:40:12;;;;;;;22.40;16.00;;;;;;;-128.00;-1.00;-1.00;105566;1251;1003954;-81
2023/09/19 00:42:40;;;;;;;22.00;16.40;;;;;;;-128.00;-1.00;-1.00;105574;1250;1046804;-81
2023/09/19 00:45:11;;;;;;;25.60;17.80;;;;;;;-128.00;-1.00;-1.00;105588;1250;1003674;-81
2023/09/19 00:47:42;;;;;;;24.90;17.80;;;;;;;-128.00;-1.00;-1.00;105655;1250;1062871;-81
2023/09/19 00:50:09;;;;;;;22.80;16.70;;;;;;;-128.00;-1.00;-1.00;105690;1251;1057680;-81
2023/09/19 00:52:39;;;;;;;21.70;16.70;;;;;;;-128.00;-1.00;-1.00;105710;1250;1004550;-81
2023/09/19 00:55:07;;;;;;;21.20;15.90;;;;;;;-128.00;-1.00;-1.00;105613;1251;1046187;-81
2023/09/19 00:57:33;;;;;;;24.10;15.30;;;;;;;-128.00;-1.00;-1.00;105767;1250;1003931;-81
2023/09/19 01:00:05;;;;;;;19.30;14.60;;;;;;;-128.00;-1.00;-1.00;105720;1251;1004157;-81
2023/09/19 01:02:32;;;;;;;23.20;17.30;;;;;;;-128.00;-1.00;-1.00;105755;1250;1059299;-81
2023/09/19 01:04:59;;;;;;;23.30;17.00;;;;;;;-128.00;-1.00;-1.00;105663;1250;1005396;-81
2023/09/19 01:07:29;;;;;;;23.10;17.60;;;;;;;-128.00;-1.00;-1.00;105394;1251;1003982;-81
2023/09/19 01:09:58;;;;;;;19.80;16.90;;;;;;;-128.00;-1.00;-1.00;105343;1251;1046727;-81
2023/09/19 01:13:01;;;;;;;22.60;16.60;;;;;;;-128.00;-1.00;-1.00;105487;1251;1063409;-81
2023/09/19 01:15:39;;;;;;;22.40;16.30;;;;;;;-128.00;-1.00;-1.00;105619;1251;1058527;-81
2023/09/19 01:18:06;;;;;;;22.40;16.20;;;;;;;-128.00;-1.00;-1.00;105498;1251;1059040;-81
2023/09/19 01:20:52;;;;;;;19.50;15.30;;;;;;;-128.00;-1.00;-1.00;105597;1250;1004471;-80
2023/09/19 01:23:39;;;;;;;21.80;16.00;;;;;;;-128.00;-1.00;-1.00;105449;1251;1047674;-81
2023/09/19 01:26:08;;;;;;;24.20;17.80;;;;;;;-128.00;-1.00;-1.00;105506;1251;1061774;-81
2023/09/19 01:29:13;;;;;;;23.60;17.70;;;;;;;-128.00;-1.00;-1.00;105704;1250;1057867;-81
2023/09/19 01:31:39;;;;;;;23.00;16.30;;;;;;;-128.00;-1.00;-1.00;105606;1250;1059098;-80
2023/09/19 01:34:06;;;;;;;20.80;16.70;;;;;;;-128.00;-1.00;-1.00;105423;1251;1003982;-81
2023/09/19 01:36:36;;;;;;;23.20;16.70;;;;;;;-128.00;-1.00;-1.00;105631;1251;1003672;-81
2023/09/19 01:39:10;;;;;;;24.40;16.70;;;;;;;-128.00;-1.00;-1.00;105642;1250;1061692;-81
2023/09/19 01:41:42;;;;;;;23.80;17.80;;;;;;;-128.00;-1.00;-1.00;105636;1250;1058120;-81
2023/09/19 01:44:09;;;;;;;24.50;17.50;;;;;;;-128.00;-1.00;-1.00;105504;1251;1059855;-81
2023/09/19 01:46:37;;;;;;;26.40;17.00;;;;;;;-128.00;-1.00;-1.00;105499;1252;1004765;-81
2023/09/19 01:49:24;;;;;;;27.70;16.20;;;;;;;-128.00;-1.00;-1.00;105563;1251;1005066;-81
2023/09/19 01:51:51;;;;;;;22.80;17.10;;;;;;;-128.00;-1.00;-1.00;105707;1250;1062124;-81
2023/09/19 01:54:21;;;;;;;18.90;16.00;;;;;;;-128.00;-1.00;-1.00;105747;1249;1004276;-81
2023/09/19 01:56:59;;;;;;;23.30;17.20;;;;;;;-128.00;-1.00;-1.00;105708;1249;1058743;-81
2023/09/19 01:59:28;;;;;;;22.00;16.40;;;;;;;-128.00;-1.00;-1.00;105722;1250;1045081;-81
2023/09/19 02:01:55;;;;;;;22.40;14.90;;;;;;;-128.00;-1.00;-1.00;105592;1250;1047219;-81
2023/09/19 02:04:21;;;;;;;20.70;16.30;;;;;;;-128.00;-1.00;-1.00;105485;1250;1004831;-81
2023/09/19 02:06:47;;;;;;;20.10;16.20;;;;;;;-128.00;-1.00;-1.00;105716;1250;1004348;-81
2023/09/19 02:09:14;;;;;;;21.00;17.40;;;;;;;-128.00;-1.00;-1.00;105687;1250;1005313;-81
2023/09/19 02:11:41;;;;;;;23.30;16.50;;;;;;;-128.00;-1.00;-1.00;105599;1250;1004433;-81
2023/09/19 02:14:08;;;;;;;23.70;16.50;;;;;;;-128.00;-1.00;-1.00;105716;1251;1003694;-81
2023/09/19 02:16:35;;;;;;;20.00;15.90;;;;;;;-128.00;-1.00;-1.00;105766;1249;1003968;-81
2023/09/19 02:19:05;;;;;;;25.50;16.70;;;;;;;-128.00;-1.00;-1.00;105732;1250;1003801;-81
2023/09/19 02:21:32;;;;;;;20.00;17.00;;;;;;;-128.00;-1.00;-1.00;105689;1250;1058212;-81
2023/09/19 02:23:58;;;;;;;31.80;24.30;;;;;;;-128.00;-1.00;-1.00;105711;1249;1003923;-81
2023/09/19 02:26:27;;;;;;;30.00;24.40;;;;;;;-128.00;-1.00;-1.00;105763;1250;1004345;-81
2023/09/19 02:28:53;;;;;;;22.70;19.90;;;;;;;-128.00;-1.00;-1.00;105716;1251;1003275;-81
2023/09/19 02:31:20;;;;;;;25.20;17.60;;;;;;;-128.00;-1.00;-1.00;105747;1250;1004920;-81
2023/09/19 02:33:46;;;;;;;19.70;15.80;;;;;;;-128.00;-1.00;-1.00;105725;1250;1004321;-81
2023/09/19 02:36:13;;;;;;;21.30;16.80;;;;;;;-128.00;-1.00;-1.00;105757;1250;1003794;-81
2023/09/19 02:38:39;;;;;;;23.00;16.90;;;;;;;-128.00;-1.00;-1.00;105685;1250;1004669;-81
2023/09/19 02:41:06;;;;;;;22.90;16.90;;;;;;;-128.00;-1.00;-1.00;105735;1251;1004366;-81
2023/09/19 02:43:33;;;;;;;23.30;17.70;;;;;;;-128.00;-1.00;-1.00;105728;1250;1004130;-81
2023/09/19 02:46:00;;;;;;;23.60;16.20;;;;;;;-128.00;-1.00;-1.00;105658;1250;1004083;-81
2023/09/19 02:48:26;;;;;;;21.10;16.00;;;;;;;-128.00;-1.00;-1.00;105578;1250;1003642;-81
2023/09/19 02:50:53;;;;;;;21.90;16.20;;;;;;;-128.00;-1.00;-1.00;105716;1251;1004121;-81
2023/09/19 02:53:20;;;;;;;22.40;17.20;;;;;;;-128.00;-1.00;-1.00;105744;1250;1005095;-81
2023/09/19 02:55:47;;;;;;;19.40;16.30;;;;;;;-128.00;-1.00;-1.00;105737;1251;1005231;-81
2023/09/19 02:58:14;;;;;;;21.30;16.00;;;;;;;-128.00;-1.00;-1.00;105714;1250;1004758;-82
2023/09/19 03:00:42;;;;;;;22.20;16.50;;;;;;;-128.00;-1.00;-1.00;105638;1251;1004187;-81
2023/09/19 03:03:08;;;;;;;20.40;15.80;;;;;;;-128.00;-1.00;-1.00;105735;1251;1005670;-81
2023/09/19 03:05:35;;;;;;;25.80;17.10;;;;;;;-128.00;-1.00;-1.00;105540;1253;1003473;-81
2023/09/19 03:08:02;;;;;;;20.10;16.80;;;;;;;-128.00;-1.00;-1.00;105630;1251;1004162;-81
2023/09/19 03:10:30;;;;;;;19.90;16.40;;;;;;;-128.00;-1.00;-1.00;105629;1250;1004493;-81
2023/09/19 03:12:57;;;;;;;20.50;16.00;;;;;;;-128.00;-1.00;-1.00;105618;1250;1004534;-81
2023/09/19 03:15:23;;;;;;;22.90;16.40;;;;;;;-128.00;-1.00;-1.00;105626;1250;1004513;-80
2023/09/19 03:17:51;;;;;;;22.10;16.00;;;;;;;-128.00;-1.00;-1.00;105615;1250;1004148;-81
2023/09/19 03:20:18;;;;;;;20.10;15.90;;;;;;;-128.00;-1.00;-1.00;105600;1250;1004510;-81
2023/09/19 03:22:45;;;;;;;21.10;16.50;;;;;;;-128.00;-1.00;-1.00;105601;1251;1003549;-81
2023/09/19 03:25:12;;;;;;;20.40;16.80;;;;;;;-128.00;-1.00;-1.00;105624;1250;1003993;-80
2023/09/19 03:27:39;;;;;;;22.70;16.60;;;;;;;-128.00;-1.00;-1.00;105612;1250;1003290;-80
2023/09/19 03:30:08;;;;;;;21.20;17.00;;;;;;;-128.00;-1.00;-1.00;105623;1251;1003587;-80
2023/09/19 03:32:43;;;;;;;23.40;15.50;;;;;;;-128.00;-1.00;-1.00;105607;1251;1058686;-81
2023/09/19 03:35:11;;;;;;;20.80;16.00;;;;;;;-128.00;-1.00;-1.00;105593;1251;1059953;-81
2023/09/19 03:37:37;;;;;;;20.70;17.30;;;;;;;-128.00;-1.00;-1.00;105617;1250;1004565;-80
2023/09/19 03:40:05;;;;;;;22.10;17.20;;;;;;;-128.00;-1.00;-1.00;105619;1251;1003649;-81
2023/09/19 03:42:31;;;;;;;20.80;17.30;;;;;;;-128.00;-1.00;-1.00;105667;1251;1004350;-80
2023/09/19 03:44:59;;;;;;;25.20;17.50;;;;;;;-128.00;-1.00;-1.00;105525;1251;1003739;-81
2023/09/19 03:47:26;;;;;;;19.80;16.50;;;;;;;-128.00;-1.00;-1.00;105599;1250;1003892;-81
2023/09/19 03:49:52;;;;;;;22.70;17.60;;;;;;;-128.00;-1.00;-1.00;105592;1250;1004024;-80
2023/09/19 03:52:19;;;;;;;21.90;17.40;;;;;;;-128.00;-1.00;-1.00;105633;1251;1004560;-81
2023/09/19 03:54:45;;;;;;;24.00;18.00;;;;;;;-128.00;-1.00;-1.00;105615;1250;1003310;-80
2023/09/19 03:57:15;;;;;;;23.60;17.70;;;;;;;-128.00;-1.00;-1.00;105556;1251;1004378;-80
2023/09/19 03:59:42;;;;;;;44.10;29.40;;;;;;;-128.00;-1.00;-1.00;105611;1251;1059821;-80
2023/09/19 04:02:21;;;;;;;51.70;29.30;;;;;;;-128.00;-1.00;-1.00;105583;1251;1003619;-80
2023/09/19 04:04:48;;;;;;;40.90;27.20;;;;;;;-128.00;-1.00;-1.00;105529;1251;1047042;-80
2023/09/19 04:07:15;;;;;;;40.10;27.20;;;;;;;-128.00;-1.00;-1.00;105609;1251;1004326;-80
2023/09/19 04:09:42;;;;;;;47.70;30.50;;;;;;;-128.00;-1.00;-1.00;105622;1251;1004147;-80
2023/09/19 04:12:11;;;;;;;32.70;24.30;;;;;;;-128.00;-1.00;-1.00;105610;1250;1004954;-80
2023/09/19 04:14:38;;;;;;;39.20;24.90;;;;;;;-128.00;-1.00;-1.00;105628;1251;1045353;-80
2023/09/19 04:17:05;;;;;;;31.00;21.00;;;;;;;-128.00;-1.00;-1.00;105616;1250;1004169;-80
2023/09/19 04:19:32;;;;;;;27.70;20.50;;;;;;;-128.00;-1.00;-1.00;105551;1250;1005174;-81
2023/09/19 04:21:58;;;;;;;31.70;20.70;;;;;;;-128.00;-1.00;-1.00;105528;1251;1003938;-81
2023/09/19 04:24:25;;;;;;;29.60;21.20;;;;;;;-128.00;-1.00;-1.00;105588;1251;1004667;-80
2023/09/19 04:26:52;;;;;;;29.10;19.70;;;;;;;-128.00;-1.00;-1.00;105535;1251;1004646;-80
2023/09/19 04:29:20;;;;;;;25.30;18.60;;;;;;;-128.00;-1.00;-1.00;105618;1251;1004455;-81
2023/09/19 04:31:46;;;;;;;25.10;18.90;;;;;;;-128.00;-1.00;-1.00;105667;1251;1004869;-80
2023/09/19 04:34:18;;;;;;;22.60;18.10;;;;;;;-128.00;-1.00;-1.00;105585;1251;1005035;-81
2023/09/19 04:36:45;;;;;;;26.60;19.70;;;;;;;-128.00;-1.00;-1.00;105584;1250;1058523;-81
2023/09/19 04:39:12;;;;;;;22.90;18.70;;;;;;;-128.00;-1.00;-1.00;105614;1251;1004514;-80
2023/09/19 04:41:40;;;;;;;26.90;17.60;;;;;;;-128.00;-1.00;-1.00;105512;1250;1003594;-80
2023/09/19 04:44:07;;;;;;;24.80;16.60;;;;;;;-128.00;-1.00;-1.00;105625;1251;1004033;-81
2023/09/19 04:46:34;;;;;;;19.60;15.50;;;;;;;-128.00;-1.00;-1.00;105493;1253;1004953;-80
2023/09/19 04:49:02;;;;;;;25.60;16.90;;;;;;;-128.00;-1.00;-1.00;105500;1251;1003469;-80
2023/09/19 04:51:33;;;;;;;21.10;17.30;;;;;;;-128.00;-1.00;-1.00;105679;1250;1004372;-80
2023/09/19 04:54:01;;;;;;;24.60;17.50;;;;;;;-128.00;-1.00;-1.00;105710;1250;1047068;-80
2023/09/19 04:56:28;;;;;;;21.60;16.70;;;;;;;-128.00;-1.00;-1.00;105739;1250;1004736;-81
2023/09/19 04:58:56;;;;;;;21.60;16.50;;;;;;;-128.00;-1.00;-1.00;105646;1251;1005065;-80
2023/09/19 05:01:22;;;;;;;25.50;20.10;;;;;;;-128.00;-1.00;-1.00;105552;1250;1004580;-81
2023/09/19 05:03:52;;;;;;;26.20;19.90;;;;;;;-128.00;-1.00;-1.00;105596;1251;1004592;-80
2023/09/19 05:06:22;;;;;;;35.00;20.40;;;;;;;-128.00;-1.00;-1.00;105579;1251;1047636;-81
2023/09/19 05:08:50;;;;;;;28.40;19.90;;;;;;;-128.00;-1.00;-1.00;105595;1251;1062153;-80
2023/09/19 05:11:19;;;;;;;26.10;19.90;;;;;;;-128.00;-1.00;-1.00;105562;1251;1004283;-80
2023/09/19 05:13:46;;;;;;;24.50;20.00;;;;;;;-128.00;-1.00;-1.00;105594;1250;1058372;-80
2023/09/19 05:16:12;;;;;;;26.60;19.00;;;;;;;-128.00;-1.00;-1.00;105577;1251;1004581;-80
2023/09/19 05:18:39;;;;;;;25.60;20.40;;;;;;;-128.00;-1.00;-1.00;105594;1251;1004086;-81
2023/09/19 05:21:06;;;;;;;28.10;20.70;;;;;;;-128.00;-1.00;-1.00;105605;1251;1004887;-80
2023/09/19 05:23:32;;;;;;;28.30;20.00;;;;;;;-128.00;-1.00;-1.00;105602;1251;1004403;-80
2023/09/19 05:25:59;;;;;;;31.60;22.00;;;;;;;-128.00;-1.00;-1.00;105601;1250;1004037;-80
2023/09/19 05:28:26;;;;;;;26.90;18.60;;;;;;;-128.00;-1.00;-1.00;105577;1250;1004440;-80
2023/09/19 05:30:53;;;;;;;25.30;18.70;;;;;;;-128.00;-1.00;-1.00;105501;1253;1004597;-81
2023/09/19 05:33:19;;;;;;;22.60;18.00;;;;;;;-128.00;-1.00;-1.00;105541;1251;1005012;-81
2023/09/19 05:35:47;;;;;;;22.00;16.70;;;;;;;-128.00;-1.00;-1.00;105617;1254;1003526;-80
2023/09/19 05:38:18;;;;;;;20.90;17.00;;;;;;;-128.00;-1.00;-1.00;105654;1251;1004118;-81
2023/09/19 05:40:45;;;;;;;24.40;17.00;;;;;;;-128.00;-1.00;-1.00;105559;1251;1047113;-81
2023/09/19 05:43:11;;;;;;;28.20;20.00;;;;;;;-128.00;-1.00;-1.00;105617;1250;1004017;-81
2023/09/19 05:45:38;;;;;;;28.40;22.10;;;;;;;-128.00;-1.00;-1.00;105616;1253;1004190;-81
2023/09/19 05:48:09;;;;;;;31.50;20.80;;;;;;;-128.00;-1.00;-1.00;105655;1251;1003638;-81
2023/09/19 05:50:36;;;;;;;32.10;22.40;;;;;;;-128.00;-1.00;-1.00;105589;1251;1059679;-81
2023/09/19 05:53:04;;;;;;;32.50;20.20;;;;;;;-128.00;-1.00;-1.00;105605;1250;1004025;-80
2023/09/19 05:55:33;;;;;;;29.10;21.20;;;;;;;-128.00;-1.00;-1.00;105597;1251;1004275;-80
2023/09/19 05:58:00;;;;;;;30.90;23.70;;;;;;;-128.00;-1.00;-1.00;105570;1251;1063158;-81
2023/09/19 06:00:31;;;;;;;40.10;21.70;;;;;;;-128.00;-1.00;-1.00;105419;1254;1004663;-81
2023/09/19 06:02:58;;;;;;;31.90;23.20;;;;;;;-128.00;-1.00;-1.00;105518;1251;1059345;-80
2023/09/19 06:05:30;;;;;;;30.40;25.50;;;;;;;-128.00;-1.00;-1.00;105514;1254;1003766;-80
2023/09/19 06:07:59;;;;;;;34.60;23.50;;;;;;;-128.00;-1.00;-1.00;105591;1251;1047531;-81
2023/09/19 06:10:27;;;;;;;29.80;24.40;;;;;;;-128.00;-1.00;-1.00;105532;1251;1061500;-81
2023/09/19 06:12:55;;;;;;;31.40;25.30;;;;;;;-128.00;-1.00;-1.00;105587;1251;1004665;-80
2023/09/19 06:15:24;;;;;;;42.80;30.50;;;;;;;-128.00;-1.00;-1.00;105577;1251;1004987;-80
2023/09/19 06:17:55;;;;;;;41.40;31.20;;;;;;;-128.00;-1.00;-1.00;105579;1251;1045916;-80
2023/09/19 06:20:23;;;;;;;35.10;28.50;;;;;;;-128.00;-1.00;-1.00;105603;1251;1047402;-80
2023/09/19 06:22:49;;;;;;;34.20;27.10;;;;;;;-128.00;-1.00;-1.00;105528;1250;1003710;-80
2023/09/19 06:25:19;;;;;;;36.20;25.80;;;;;;;-128.00;-1.00;-1.00;105349;1253;1004725;-80
2023/09/19 06:27:48;;;;;;;34.30;24.70;;;;;;;-128.00;-1.00;-1.00;105416;1253;1059950;-81
2023/09/19 06:30:15;;;;;;;31.50;24.20;;;;;;;-128.00;-1.00;-1.00;105684;1251;1045971;-81
2023/09/19 06:32:44;;;;;;;28.80;22.00;;;;;;;-128.00;-1.00;-1.00;105522;1251;1003989;-80
2023/09/19 06:35:11;;;;;;;28.50;22.60;;;;;;;-128.00;-1.00;-1.00;105536;1251;1062789;-80
2023/09/19 06:37:38;;;;;;;35.60;23.00;;;;;;;-128.00;-1.00;-1.00;105561;1255;1004048;-80
2023/09/19 06:40:06;;;;;;;28.80;22.80;;;;;;;-128.00;-1.00;-1.00;105505;1251;1004920;-81
2023/09/19 06:42:33;;;;;;;30.10;24.70;;;;;;;-128.00;-1.00;-1.00;105511;1254;1046235;-81
2023/09/19 06:44:59;;;;;;;31.70;22.20;;;;;;;-128.00;-1.00;-1.00;105514;1251;1004577;-80
2023/09/19 06:47:26;;;;;;;30.90;24.50;;;;;;;-128.00;-1.00;-1.00;105534;1251;1003249;-81
2023/09/19 06:49:53;;;;;;;36.50;28.00;;;;;;;-128.00;-1.00;-1.00;105534;1253;1004799;-80
2023/09/19 06:52:22;;;;;;;37.80;27.20;;;;;;;-128.00;-1.00;-1.00;105449;1251;1005112;-81
2023/09/19 06:54:50;;;;;;;37.90;28.80;;;;;;;-128.00;-1.00;-1.00;105576;1251;1046679;-80
2023/09/19 06:57:16;;;;;;;36.20;27.50;;;;;;;-128.00;-1.00;-1.00;105594;1251;1003382;-81
2023/09/19 06:59:44;;;;;;;52.90;40.50;;;;;;;-128.00;-1.00;-1.00;105526;1251;1004056;-80
2023/09/19 07:02:11;;;;;;;53.80;42.00;;;;;;;-128.00;-1.00;-1.00;105594;1253;1004657;-81
2023/09/19 07:04:37;;;;;;;54.50;44.50;;;;;;;-128.00;-1.00;-1.00;105462;1251;1004798;-81
2023/09/19 07:07:04;;;;;;;53.00;40.80;;;;;;;-128.00;-1.00;-1.00;105565;1251;1004527;-81
2023/09/19 07:09:31;;;;;;;44.10;30.90;;;;;;;-128.00;-1.00;-1.00;105469;1251;1003949;-81
2023/09/19 07:11:58;;;;;;;33.10;25.60;;;;;;;-128.00;-1.00;-1.00;105548;1254;1004089;-80
2023/09/19 07:14:24;;;;;;;31.00;22.00;;;;;;;-128.00;-1.00;-1.00;105501;1250;1003894;-80
2023/09/19 07:16:51;;;;;;;34.10;22.70;;;;;;;-128.00;-1.00;-1.00;105525;1251;1004785;-81
2023/09/19 07:19:18;;;;;;;27.20;20.10;;;;;;;-128.00;-1.00;-1.00;105550;1252;1004743;-80
2023/09/19 07:21:47;;;;;;;26.20;18.50;;;;;;;-128.00;-1.00;-1.00;105571;1251;1004961;-81
2023/09/19 07:24:13;;;;;;;;;;;;;;;-128.00;-1.00;-1.00;105593;1250;1063600;-81
2023/09/19 07:26:40;;;;;;;20.10;15.60;;;;;;;-128.00;-1.00;-1.00;105578;1251;1004101;-81
2023/09/19 07:29:07;;;;;;;17.40;12.50;;;;;;;-128.00;-1.00;-1.00;105349;1253;1003872;-80
2023/09/19 07:31:34;;;;;;;11.70;9.40;;;;;;;-128.00;-1.00;-1.00;105492;1251;1003775;-81
2023/09/19 07:34:00;;;;;;;12.60;6.30;;;;;;;-128.00;-1.00;-1.00;105568;1251;1003842;-80
2023/09/19 07:36:29;;;;;;;8.50;5.70;;;;;;;-128.00;-1.00;-1.00;105526;1251;1005248;-81
2023/09/19 07:38:57;;;;;;;9.20;5.20;;;;;;;-128.00;-1.00;-1.00;105503;1254;1058109;-81
2023/09/19 07:41:24;;;;;;;6.90;5.10;;;;;;;-128.00;-1.00;-1.00;105517;1251;1004207;-81
2023/09/19 07:43:51;;;;;;;11.90;10.80;;;;;;;-128.00;-1.00;-1.00;105512;1252;1004534;-81
2023/09/19 07:46:17;;;;;;;4.70;3.40;;;;;;;-128.00;-1.00;-1.00;105510;1251;1003874;-80
2023/09/19 07:48:48;;;;;;;4.80;3.10;;;;;;;-128.00;-1.00;-1.00;105585;1254;1004056;-81
2023/09/19 07:51:15;;;;;;;4.90;3.00;;;;;;;-128.00;-1.00;-1.00;105450;1251;1058826;-81
2023/09/19 07:53:42;;;;;;;2.10;1.60;;;;;;;-128.00;-1.00;-1.00;105497;1251;1004488;-81
2023/09/19 07:56:09;;;;;;;5.30;3.10;;;;;;;-128.00;-1.00;-1.00;105536;1251;1004241;-81
2023/09/19 07:58:40;;;;;;;4.80;3.50;;;;;;;-128.00;-1.00;-1.00;105576;1255;1005016;-80
2023/09/19 08:01:07;;;;;;;5.70;3.10;;;;;;;-128.00;-1.00;-1.00;105526;1250;1061286;-80
2023/09/19 08:03:34;;;;;;;5.50;2.20;;;;;;;-128.00;-1.00;-1.00;105549;1251;1004153;-81
2023/09/19 08:06:00;;;;;;;4.10;2.10;;;;;;;-128.00;-1.00;-1.00;105471;1251;1003739;-81
2023/09/19 08:08:27;;;;;;;2.80;2.10;;;;;;;-128.00;-1.00;-1.00;105467;1251;1004036;-81
2023/09/19 08:10:56;;;;;;;5.00;2.20;;;;;;;-128.00;-1.00;-1.00;105569;1251;1004387;-80
2023/09/19 08:13:23;;;;;;;;;;;;;;;-128.00;-1.00;-1.00;105600;1251;1062220;-81
2023/09/19 08:15:50;;;;;;;3.00;1.90;;;;;;;-128.00;-1.00;-1.00;105443;1251;1003538;-81
2023/09/19 08:18:17;;;;;;;3.70;2.30;;;;;;;-128.00;-1.00;-1.00;105527;1251;1004293;-81
2023/09/19 08:20:49;;;;;;;6.10;4.10;;;;;;;-128.00;-1.00;-1.00;105460;1254;1004162;-81
2023/09/19 08:23:17;;;;;;;5.40;3.00;;;;;;;-128.00;-1.00;-1.00;105565;1251;1047252;-80
2023/09/19 08:25:43;;;;;;;4.80;2.30;;;;;;;-128.00;-1.00;-1.00;105527;1251;1004373;-81
2023/09/19 08:28:12;;;;;;;5.00;2.80;;;;;;;-128.00;-1.00;-1.00;105506;1251;1004987;-80
2023/09/19 08:30:40;;;;;;;8.50;2.90;;;;;;;-128.00;-1.00;-1.00;105498;1252;1058705;-81
2023/09/19 08:33:07;;;;;;;4.10;2.40;;;;;;;-128.00;-1.00;-1.00;105553;1251;1004768;-80
2023/09/19 08:35:35;;;;;;;6.00;2.50;;;;;;;-128.00;-1.00;-1.00;105534;1253;1003941;-80
2023/09/19 08:38:03;;;;;;;6.70;2.60;;;;;;;-128.00;-1.00;-1.00;105568;1251;1003880;-81
2023/09/19 08:40:33;;;;;;;;;;;;;;;-128.00;-1.00;-1.00;105611;1251;1058689;-81
2023/09/19 08:43:00;;;;;;;4.00;2.40;;;;;;;-128.00;-1.00;-1.00;105560;1255;1059633;-80
2023/09/19 08:45:28;;;;;;;5.40;2.80;;;;;;;-128.00;-1.00;-1.00;105528;1251;1005068;-80
2023/09/19 08:48:14;;;;;;;8.80;5.00;;;;;;;-128.00;-1.00;-1.00;105589;1251;1004235;-81
2023/09/19 08:50:50;;;;;;;8.30;4.50;;;;;;;-128.00;-1.00;-1.00;105453;1251;1061641;-81
2023/09/19 08:53:38;;;;;;;10.10;4.60;;;;;;;-128.00;-1.00;-1.00;105557;1251;1057162;-81
2023/09/19 08:56:06;;;;;;;;;;;;;;;-128.00;-1.00;-1.00;105530;1254;1058947;-80
2023/09/19 08:58:40;;;;;;;7.30;3.60;;;;;;;-128.00;-1.00;-1.00;105551;1251;1004262;-81
2023/09/19 09:01:08;;;;;;;8.30;3.60;;;;;;;-128.00;-1.00;-1.00;105538;1255;1047924;-80
2023/09/19 09:03:35;;;;;;;5.60;3.60;;;;;;;-128.00;-1.00;-1.00;105556;1251;1004168;-80
2023/09/19 09:06:01;;;;;;;5.50;3.90;;;;;;;-128.00;-1.00;-1.00;105402;1251;1003732;-80
2023/09/19 09:08:28;;;;;;;7.20;3.60;;;;;;;-128.00;-1.00;-1.00;105325;1252;1004204;-79
2023/09/19 09:10:54;;;;;;;5.60;3.70;;;;;;;-128.00;-1.00;-1.00;105541;1251;1004044;-82
2023/09/19 09:13:22;;;;;;;8.40;3.90;;;;;;;-128.00;-1.00;-1.00;105586;1251;1003737;-82
2023/09/19 09:15:50;;;;;;;6.30;3.00;;;;;;;-128.00;-1.00;-1.00;105326;1256;1004899;-82
2023/09/19 09:18:17;;;;;;;5.30;2.60;;;;;;;-128.00;-1.00;-1.00;105507;1255;1003808;-80
2023/09/19 09:20:44;;;;;;;5.50;3.10;;;;;;;-128.00;-1.00;-1.00;105537;1251;1004047;-80
2023/09/19 09:23:11;;;;;;;4.20;2.80;;;;;;;-128.00;-1.00;-1.00;105510;1255;1004742;-80
2023/09/19 09:25:56;;;;;;;6.00;3.70;;;;;;;-128.00;-1.00;-1.00;105464;1252;1004142;-81
2023/09/19 09:28:24;;;;;;;6.70;2.80;;;;;;;-128.00;-1.00;-1.00;105424;1256;1062547;-81
2023/09/19 09:30:51;;;;;;;4.30;3.10;;;;;;;-128.00;-1.00;-1.00;105508;1254;1004557;-81
2023/09/19 09:33:18;;;;;;;6.50;2.50;;;;;;;-128.00;-1.00;-1.00;105563;1251;1004388;-80
2023/09/19 09:35:56;;;;;;;6.40;3.50;;;;;;;-128.00;-1.00;-1.00;105492;1251;1004700;-81
2023/09/19 09:38:33;;;;;;;5.20;3.80;;;;;;;-128.00;-1.00;-1.00;105522;1256;1048591;-80
2023/09/19 09:43:38;;;;;;;7.70;4.60;;;;;;;-128.00;-1.00;-1.00;105674;1251;1058923;-81
2023/09/19 09:49:15;;;;;;;6.80;4.00;;;;;;;-128.00;-1.00;-1.00;105485;1251;1046382;-80
2023/09/19 09:51:58;;;;;;;4.30;3.80;;;;;;;-128.00;-1.00;-1.00;105537;1250;1046605;-80
2023/09/19 09:54:33;;;;;;;4.50;3.30;;;;;;;-128.00;-1.00;-1.00;105585;1251;1062121;-80
2023/09/19 09:57:21;;;;;;;4.60;3.60;;;;;;;-128.00;-1.00;-1.00;105603;1251;1059521;-80
2023/09/19 09:59:58;;;;;;;7.60;4.90;;;;;;;-128.00;-1.00;-1.00;105565;1251;1059244;-81
2023/09/19 10:02:29;;;;;;;6.40;4.30;;;;;;;-128.00;-1.00;-1.00;105406;1253;1046001;-81
2023/09/19 10:05:09;;;;;;;6.30;4.20;;;;;;;-128.00;-1.00;-1.00;105393;1253;1048388;-80
2023/09/19 10:07:38;;;;;;;4.90;3.60;;;;;;;-128.00;-1.00;-1.00;105485;1253;1062117;-80
2023/09/19 10:10:23;;;;;;;6.00;4.10;;;;;;;-128.00;-1.00;-1.00;105431;1253;1058024;-81
2023/09/19 10:12:50;;;;;;;15.90;4.50;;;;;;;-128.00;-1.00;-1.00;105497;1251;1059679;-80
2023/09/19 10:15:20;;;;;;;5.40;4.30;;;;;;;-128.00;-1.00;-1.00;105374;1253;1003947;-80
2023/09/19 10:17:47;;;;;;;8.30;3.90;;;;;;;-128.00;-1.00;-1.00;105448;1253;1047426;-81
2023/09/19 10:22:59;;;;;;;6.30;4.30;;;;;;;-128.00;-1.00;-1.00;105458;1253;1058212;-81
2023/09/19 10:25:28;;;;;;;7.10;4.70;;;;;;;-128.00;-1.00;-1.00;105435;1256;1004115;-80
2023/09/19 10:27:55;;;;;;;5.00;4.20;;;;;;;-128.00;-1.00;-1.00;105428;1253;1045627;-81
2023/09/19 10:30:22;;;;;;;6.70;4.40;;;;;;;-128.00;-1.00;-1.00;105351;1257;1004318;-80
2023/09/19 10:32:57;;;;;;;5.60;4.20;;;;;;;-128.00;-1.00;-1.00;105519;1252;1003502;-81
2023/09/19 10:35:24;;;;;;;11.30;7.50;;;;;;;-128.00;-1.00;-1.00;105421;1253;1058428;-80
2023/09/19 10:37:51;;;;;;;8.00;6.00;;;;;;;-128.00;-1.00;-1.00;105414;1254;1003461;-81
2023/09/19 10:40:18;;;;;;;7.40;6.30;;;;;;;-128.00;-1.00;-1.00;105469;1254;1004885;-81
2023/09/19 10:42:45;;;;;;;9.40;6.40;;;;;;;-128.00;-1.00;-1.00;105308;1254;1004993;-80
2023/09/19 10:45:13;;;;;;;8.40;7.50;;;;;;;-128.00;-1.00;-1.00;105335;1254;1004300;-80
2023/09/19 10:47:40;;;;;;;;;;;;;;;-128.00;-1.00;-1.00;105442;1253;1057701;-81
2023/09/19 10:50:09;;;;;;;7.20;6.40;;;;;;;-128.00;-1.00;-1.00;105437;1255;1004833;-80
2023/09/19 10:52:38;;;;;;;9.50;8.60;;;;;;;-128.00;-1.00;-1.00;105451;1252;1046621;-81
2023/09/19 10:55:06;;;;;;;13.10;9.40;;;;;;;-128.00;-1.00;-1.00;105433;1252;1046611;-81
2023/09/19 10:57:33;;;;;;;10.20;9.20;;;;;;;-128.00;-1.00;-1.00;105461;1253;1003566;-80
2023/09/19 11:00:04;;;;;;;7.50;5.40;;;;;;;-128.00;-1.00;-1.00;105413;1254;1003864;-81
2023/09/19 11:02:31;;;;;;;13.10;9.40;;;;;;;-128.00;-1.00;-1.00;105573;1251;1060142;-80
2023/09/19 11:05:11;;;;;;;11.50;8.50;;;;;;;-128.00;-1.00;-1.00;105289;1253;1004094;-81
2023/09/19 11:07:57;;;;;;;11.60;8.70;;;;;;;-128.00;-1.00;-1.00;105583;1251;1047193;-81
2023/09/19 11:10:48;;;;;;;11.30;9.50;;;;;;;-128.00;-1.00;-1.00;105580;1254;1063124;-80
2023/09/19 11:13:26;;;;;;;10.00;7.60;;;;;;;-128.00;-1.00;-1.00;105598;1251;1058904;-80
2023/09/19 11:15:59;;;;;;;12.20;9.20;;;;;;;-128.00;-1.00;-1.00;105520;1256;1059429;-80
2023/09/19 11:18:41;;;;;;;9.00;7.80;;;;;;;-128.00;-1.00;-1.00;105529;1251;1045671;-81
2023/09/19 11:21:34;;;;;;;18.60;14.20;;;;;;;-128.00;-1.00;-1.00;105570;1256;1047299;-80
2023/09/19 11:24:17;;;;;;;28.20;23.40;;;;;;;-128.00;-1.00;-1.00;105515;1251;1062372;-81